createdAt,value
2022-09-28T00:01:25.128Z,96.26
2022-09-28T00:03:57.410Z,96.27
2022-09-28T00:06:26.948Z,96.72
2022-09-28T00:08:55.017Z,96.33
2022-09-28T00:11:24.019Z,96.42
2022-09-28T00:13:53.723Z,96.19
2022-09-28T00:16:24.090Z,96.01
2022-09-28T00:18:52.547Z,95.55
2022-09-28T00:21:33.913Z,95.92
2022-09-28T00:24:15.781Z,95.45
2022-09-28T00:26:54.376Z,94.96
2022-09-28T00:29:40.221Z,94.72
2022-09-28T00:32:11.637Z,95.32
2022-09-28T00:34:43.268Z,95.87
2022-09-28T00:37:10.744Z,95.76
2022-09-28T00:39:41.263Z,95.77
2022-09-28T00:42:14.960Z,95.70
2022-09-28T00:44:48.609Z,95.22
2022-09-28T00:47:46.648Z,95.19
2022-09-28T00:50:24.340Z,95.31
2022-09-28T00:53:06.785Z,94.60
2022-09-28T00:55:49.697Z,94.88
2022-09-28T00:58:30.071Z,94.28
2022-09-28T01:00:59.644Z,94.09
2022-09-28T01:03:28.843Z,94.19
2022-09-28T01:05:59.808Z,93.95
2022-09-28T01:08:31.341Z,94.23
2022-09-28T01:10:59.968Z,94.00
2022-09-28T01:13:28.461Z,93.93
2022-09-28T01:16:20.507Z,94.25
2022-09-28T01:18:57.528Z,93.88
2022-09-28T01:21:26.085Z,93.83
2022-09-28T01:24:03.875Z,93.33
2022-09-28T01:26:50.120Z,93.62
2022-09-28T01:29:26.816Z,93.06
2022-09-28T01:32:16.929Z,92.09
2022-09-28T01:35:03.279Z,92.25
2022-09-28T01:37:44.468Z,91.45
2022-09-28T01:40:14.831Z,92.36
2022-09-28T01:42:45.892Z,91.67
2022-09-28T01:45:37.281Z,91.44
2022-09-28T01:48:07.825Z,92.11
2022-09-28T01:50:39.652Z,91.61
2022-09-28T01:53:13.074Z,91.94
2022-09-28T01:55:45.363Z,92.43
2022-09-28T01:58:23.287Z,92.47
2022-09-28T02:00:57.105Z,92.69
2022-09-28T02:03:32.355Z,92.58
2022-09-28T02:06:08.572Z,92.00
2022-09-28T02:08:47.173Z,92.30
2022-09-28T02:11:17.004Z,92.04
2022-09-28T02:13:50.789Z,91.64
2022-09-28T02:16:43.055Z,91.45
2022-09-28T02:19:17.599Z,91.72
2022-09-28T02:22:00.352Z,91.26
2022-09-28T02:24:38.866Z,89.98
2022-09-28T02:27:16.270Z,90.08
2022-09-28T02:29:44.131Z,89.27
2022-09-28T02:32:11.716Z,89.03
2022-09-28T02:34:39.141Z,89.82
2022-09-28T02:37:07.210Z,88.67
2022-09-28T02:39:34.784Z,89.13
2022-09-28T02:42:27.291Z,88.03
2022-09-28T02:45:37.718Z,87.85
2022-09-28T02:48:43.528Z,87.44
2022-09-28T02:51:34.023Z,87.93
2022-09-28T02:54:32.586Z,86.02
2022-09-28T02:57:42.151Z,87.92
2022-09-28T03:00:22.831Z,86.56
2022-09-28T03:03:07.663Z,85.72
2022-09-28T03:05:44.030Z,84.80
2022-09-28T03:08:23.953Z,85.79
2022-09-28T03:11:00.995Z,87.20
2022-09-28T03:13:29.904Z,87.83
2022-09-28T03:16:18.207Z,88.43
2022-09-28T03:18:47.191Z,87.80
2022-09-28T03:21:16.023Z,86.91
2022-09-28T03:23:43.737Z,86.65
2022-09-28T03:26:12.753Z,85.61
2022-09-28T03:28:40.842Z,86.81
2022-09-28T03:31:09.377Z,86.26
2022-09-28T03:33:37.196Z,86.46
2022-09-28T03:36:05.821Z,85.79
2022-09-28T03:38:33.372Z,85.73
2022-09-28T03:41:01.478Z,85.29
2022-09-28T03:43:30.766Z,86.64
2022-09-28T03:46:00.257Z,87.30
2022-09-28T03:48:34.460Z,87.04
2022-09-28T03:51:04.777Z,87.51
2022-09-28T03:53:33.232Z,87.45
2022-09-28T03:56:15.271Z,87.96
2022-09-28T03:58:42.989Z,88.16
2022-09-28T04:01:16.968Z,88.37
2022-09-28T04:03:46.177Z,88.30
2022-09-28T04:06:13.933Z,88.50
2022-09-28T04:08:43.015Z,90.18
2022-09-28T04:11:11.061Z,89.48
2022-09-28T04:13:38.944Z,88.64
2022-09-28T04:16:06.807Z,90.40
2022-09-28T04:18:35.176Z,89.90
2022-09-28T04:21:08.873Z,89.22
2022-09-28T04:23:39.285Z,89.19
2022-09-28T04:26:11.796Z,88.74
2022-09-28T04:29:01.645Z,88.72
2022-09-28T04:31:59.797Z,88.74
2022-09-28T04:34:33.171Z,87.94
2022-09-28T04:37:02.856Z,88.08
2022-09-28T04:39:30.554Z,87.90
2022-09-28T04:41:58.053Z,88.26
2022-09-28T04:44:25.467Z,88.57
2022-09-28T04:46:55.728Z,88.72
2022-09-28T04:49:25.292Z,89.05
2022-09-28T04:51:53.030Z,89.29
2022-09-28T04:54:20.444Z,88.93
2022-09-28T04:56:47.904Z,88.45
2022-09-28T04:59:15.695Z,88.86
2022-09-28T05:01:43.397Z,88.79
2022-09-28T05:04:11.883Z,89.37
2022-09-28T05:06:39.549Z,90.15
2022-09-28T05:09:09.241Z,89.88
2022-09-28T05:11:36.700Z,89.87
2022-09-28T05:14:05.790Z,89.56
2022-09-28T05:16:36.270Z,89.05
2022-09-28T05:19:08.301Z,88.43
2022-09-28T05:21:35.734Z,88.31
2022-09-28T05:24:07.370Z,88.16
2022-09-28T05:26:35.307Z,88.44
2022-09-28T05:29:02.796Z,89.03
2022-09-28T05:31:32.827Z,88.96
2022-09-28T05:34:02.448Z,88.81
2022-09-28T05:36:29.947Z,88.96
2022-09-28T05:38:57.368Z,89.19
2022-09-28T05:41:25.146Z,88.79
2022-09-28T05:43:52.668Z,92.97
2022-09-28T05:46:21.726Z,92.68
2022-09-28T05:48:52.340Z,92.27
2022-09-28T05:51:21.056Z,91.89
2022-09-28T05:53:57.513Z,91.62
2022-09-28T05:56:26.536Z,89.18
2022-09-28T05:58:54.398Z,90.85
2022-09-28T06:01:22.371Z,88.40
2022-09-28T06:03:50.364Z,89.38
2022-09-28T06:06:18.998Z,88.47
2022-09-28T06:08:48.436Z,86.28
2022-09-28T06:11:18.696Z,85.55
2022-09-28T06:13:46.730Z,86.75
2022-09-28T06:16:16.826Z,86.73
2022-09-28T06:18:45.054Z,88.36
2022-09-28T06:21:13.677Z,86.19
2022-09-28T06:23:45.608Z,84.47
2022-09-28T06:26:16.793Z,86.00
2022-09-28T06:28:45.295Z,83.72
2022-09-28T06:31:12.832Z,82.46
2022-09-28T06:33:42.077Z,82.57
2022-09-28T06:36:10.256Z,82.08
2022-09-28T06:38:38.417Z,83.62
2022-09-28T06:41:06.576Z,82.72
2022-09-28T06:43:35.075Z,81.27
2022-09-28T06:46:07.681Z,82.19
2022-09-28T06:48:36.397Z,81.79
2022-09-28T06:51:06.297Z,80.88
2022-09-28T06:53:33.927Z,79.67
2022-09-28T06:56:02.502Z,80.54
2022-09-28T06:58:32.274Z,79.75
2022-09-28T07:01:00.380Z,81.30
2022-09-28T07:03:28.677Z,79.77
2022-09-28T07:05:56.896Z,79.96
2022-09-28T07:08:32.740Z,78.66
2022-09-28T07:11:04.749Z,78.38
2022-09-28T07:16:25.773Z,75.58
2022-09-28T07:18:54.933Z,76.72
2022-09-28T07:21:29.805Z,76.95
2022-09-28T07:24:00.031Z,77.86
2022-09-28T07:26:32.785Z,75.41
2022-09-28T07:29:00.640Z,74.89
2022-09-28T07:31:29.734Z,76.39
2022-09-28T07:33:58.700Z,75.12
2022-09-28T07:36:26.991Z,74.84
2022-09-28T07:38:54.536Z,70.80
2022-09-28T07:41:32.355Z,70.26
2022-09-28T07:44:05.405Z,72.18
2022-09-28T07:46:34.897Z,64.93
2022-09-28T07:49:09.838Z,69.87
2022-09-28T07:51:40.564Z,66.25
2022-09-28T07:54:10.320Z,66.19
2022-09-28T07:56:38.458Z,68.49
2022-09-28T07:59:06.316Z,54.88
2022-09-28T08:01:36.690Z,56.68
2022-09-28T08:04:04.692Z,60.47
2022-09-28T08:06:32.283Z,63.22
2022-09-28T08:09:01.821Z,62.14
2022-09-28T08:11:30.682Z,65.05
2022-09-28T08:14:00.143Z,64.06
2022-09-28T08:16:28.767Z,63.67
2022-09-28T08:18:56.952Z,62.11
2022-09-28T08:21:42.877Z,61.52
2022-09-28T08:24:13.900Z,61.61
2022-09-28T08:26:43.089Z,58.29
2022-09-28T08:29:11.564Z,60.16
2022-09-28T08:31:39.573Z,61.49
2022-09-28T08:34:07.412Z,62.06
2022-09-28T08:36:36.382Z,54.74
2022-09-28T08:39:05.452Z,54.80
2022-09-28T08:41:39.243Z,56.96
2022-09-28T08:44:24.081Z,58.20
2022-09-28T08:47:01.697Z,60.56
2022-09-28T08:49:44.109Z,54.49
2022-09-28T08:52:23.355Z,55.78
2022-09-28T08:54:56.355Z,57.58
2022-09-28T08:57:32.104Z,60.34
2022-09-28T09:00:02.918Z,55.47
2022-09-28T09:02:33.964Z,55.34
2022-09-28T09:05:12.408Z,55.92
2022-09-28T09:08:17.237Z,60.28
2022-09-28T09:10:57.825Z,58.39
2022-09-28T09:13:33.668Z,54.93
2022-09-28T09:16:49.709Z,57.40
2022-09-28T09:19:27.408Z,56.87
2022-09-28T09:22:05.588Z,57.06
2022-09-28T09:24:41.903Z,57.03
2022-09-28T09:27:38.008Z,57.33
2022-09-28T09:30:13.287Z,52.09
2022-09-28T09:33:06.897Z,52.96
2022-09-28T09:36:01.557Z,54.98
2022-09-28T09:38:59.983Z,51.83
2022-09-28T09:41:41.174Z,52.59
2022-09-28T09:44:33.551Z,53.90
2022-09-28T09:47:11.261Z,48.21
2022-09-28T09:49:50.181Z,52.58
2022-09-28T09:55:34.428Z,51.66
2022-09-28T09:58:09.951Z,51.41
2022-09-28T10:00:42.827Z,50.27
2022-09-28T10:03:22.178Z,52.01
2022-09-28T10:06:16.160Z,53.42
2022-09-28T10:08:48.712Z,51.25
2022-09-28T10:11:28.772Z,51.75
2022-09-28T10:13:57.728Z,52.30
2022-09-28T10:16:31.283Z,50.34
2022-09-28T10:19:00.879Z,51.83
2022-09-28T10:21:40.526Z,50.33
2022-09-28T10:24:22.769Z,48.93
2022-09-28T10:26:54.651Z,48.94
2022-09-28T10:29:26.039Z,48.67
2022-09-28T10:31:54.371Z,48.05
2022-09-28T10:34:28.099Z,48.15
2022-09-28T10:36:59.920Z,48.56
2022-09-28T10:39:34.480Z,48.69
2022-09-28T10:42:06.124Z,49.17
2022-09-28T10:44:48.704Z,49.09
2022-09-28T10:47:19.293Z,49.71
2022-09-28T10:49:50.538Z,50.46
2022-09-28T10:52:38.632Z,49.17
2022-09-28T10:55:30.557Z,46.48
2022-09-28T10:57:59.725Z,47.08
2022-09-28T11:00:32.881Z,46.78
2022-09-28T11:03:02.564Z,46.04
2022-09-28T11:05:30.799Z,47.34
2022-09-28T11:08:02.708Z,47.82
2022-09-28T11:10:32.896Z,47.03
2022-09-28T11:13:02.010Z,45.23
2022-09-28T11:15:32.988Z,45.58
2022-09-28T11:18:31.572Z,44.56
2022-09-28T11:21:23.172Z,45.93
2022-09-28T11:24:19.986Z,47.17
2022-09-28T11:26:52.872Z,48.06
2022-09-28T11:29:40.295Z,47.31
2022-09-28T11:32:15.012Z,46.81
2022-09-28T11:34:59.530Z,46.99
2022-09-28T11:37:33.597Z,47.30
2022-09-28T11:40:13.375Z,47.83
2022-09-28T11:43:21.940Z,45.49
2022-09-28T11:46:03.763Z,44.95
2022-09-28T11:48:43.213Z,44.98
2022-09-28T11:51:23.215Z,46.31
2022-09-28T11:54:20.185Z,45.91
2022-09-28T11:56:50.416Z,45.74
2022-09-28T11:59:30.645Z,44.92
2022-09-28T12:02:03.440Z,45.29
2022-09-28T12:04:47.928Z,45.17
2022-09-28T12:07:23.236Z,45.16
2022-09-28T12:10:21.241Z,45.27
2022-09-28T12:13:11.896Z,44.82
2022-09-28T12:16:13.260Z,43.44
2022-09-28T12:18:53.075Z,41.72
2022-09-28T12:21:48.575Z,42.80
2022-09-28T12:24:31.196Z,43.44
2022-09-28T12:27:12.279Z,44.44
2022-09-28T12:29:47.456Z,40.74
2022-09-28T12:32:43.159Z,41.11
2022-09-28T12:35:13.310Z,42.53
2022-09-28T12:38:20.988Z,42.05
2022-09-28T12:41:11.077Z,42.84
2022-09-28T12:43:48.110Z,42.94
2022-09-28T12:46:45.967Z,43.50
2022-09-28T12:50:07.327Z,43.15
2022-09-28T12:52:27.235Z,42.87
2022-09-28T12:55:23.875Z,43.72
2022-09-28T12:58:06.453Z,45.33
2022-09-28T13:01:03.252Z,44.51
2022-09-28T13:03:50.392Z,46.33
2022-09-28T13:06:54.044Z,45.55
2022-09-28T13:09:23.997Z,45.59
2022-09-28T13:11:54.678Z,47.39
2022-09-28T13:14:50.201Z,47.46
2022-09-28T13:17:49.527Z,48.41
2022-09-28T13:20:20.117Z,46.37
2022-09-28T13:22:50.665Z,46.89
2022-09-28T13:25:21.606Z,47.50
2022-09-28T13:28:00.961Z,47.53
2022-09-28T13:30:29.006Z,47.43
2022-09-28T13:32:59.366Z,47.48
2022-09-28T13:35:28.459Z,48.22
2022-09-28T13:38:24.731Z,48.65
2022-09-28T13:41:11.738Z,48.90
2022-09-28T13:44:05.484Z,49.76
2022-09-28T13:46:50.999Z,50.11
2022-09-28T13:49:30.944Z,49.95
2022-09-28T13:52:07.131Z,50.73
2022-09-28T13:54:57.293Z,51.17
2022-09-28T13:57:36.291Z,52.02
2022-09-28T14:00:22.418Z,52.04
2022-09-28T14:03:01.499Z,51.81
2022-09-28T14:05:45.329Z,52.52
2022-09-28T14:08:34.689Z,52.79
2022-09-28T14:11:27.361Z,52.25
2022-09-28T14:14:04.987Z,52.10
2022-09-28T14:16:34.794Z,52.64
2022-09-28T14:19:10.594Z,52.40
2022-09-28T14:21:46.998Z,53.66
2022-09-28T14:24:15.439Z,52.63
2022-09-28T14:27:03.372Z,53.25
2022-09-28T14:29:34.669Z,53.69
2022-09-28T14:32:24.749Z,53.90
2022-09-28T14:34:59.565Z,55.03
2022-09-28T14:38:17.820Z,55.51
2022-09-28T14:41:12.818Z,55.61
2022-09-28T14:43:46.317Z,55.97
2022-09-28T14:46:14.584Z,56.29
2022-09-28T14:48:48.089Z,56.08
2022-09-28T14:51:27.765Z,56.13
2022-09-28T14:54:04.451Z,57.11
2022-09-28T14:56:40.301Z,57.78
2022-09-28T14:59:14.317Z,57.49
2022-09-28T15:02:01.014Z,57.78
2022-09-28T15:04:30.817Z,58.07
2022-09-28T15:06:58.605Z,57.93
2022-09-28T15:09:30.169Z,58.05
2022-09-28T15:12:07.646Z,58.17
2022-09-28T15:14:45.256Z,58.49
2022-09-28T15:17:14.185Z,58.92
2022-09-28T15:19:53.504Z,59.91
2022-09-28T15:22:21.204Z,59.63
2022-09-28T15:25:02.747Z,59.94
2022-09-28T15:27:38.144Z,60.10
2022-09-28T15:30:38.530Z,60.17
2022-09-28T15:33:24.666Z,61.34
2022-09-28T15:35:58.225Z,60.92
2022-09-28T15:38:26.011Z,61.80
2022-09-28T15:40:54.594Z,61.75
2022-09-28T15:43:32.877Z,61.62
2022-09-28T15:46:10.536Z,62.26
2022-09-28T15:48:51.978Z,62.49
2022-09-28T15:51:21.490Z,63.11
2022-09-28T15:53:51.880Z,63.10
2022-09-28T15:56:20.005Z,64.04
2022-09-28T15:59:13.799Z,64.38
2022-09-28T16:01:45.597Z,64.83
2022-09-28T16:04:51.788Z,64.95
2022-09-28T16:07:20.516Z,64.80
2022-09-28T16:10:11.600Z,65.36
2022-09-28T16:12:50.910Z,66.04
2022-09-28T16:15:21.353Z,65.72
2022-09-28T16:17:58.033Z,65.91
2022-09-28T16:20:38.709Z,66.54
2022-09-28T16:23:23.124Z,66.85
2022-09-28T16:25:58.865Z,68.04
2022-09-28T16:28:38.583Z,67.66
2022-09-28T16:31:27.324Z,68.47
2022-09-28T16:33:59.113Z,68.07
2022-09-28T16:36:38.591Z,68.59
2022-09-28T16:39:06.472Z,68.92
2022-09-28T16:41:34.520Z,69.04
2022-09-28T16:44:02.377Z,69.15
2022-09-28T16:46:37.491Z,69.12
2022-09-28T16:49:06.719Z,69.30
2022-09-28T16:51:34.163Z,69.61
2022-09-28T16:54:37.243Z,69.79
2022-09-28T16:57:07.101Z,70.20
2022-09-28T16:59:38.426Z,70.33
2022-09-28T17:02:42.350Z,70.78
2022-09-28T17:05:06.867Z,71.14
2022-09-28T17:07:34.685Z,70.90
2022-09-28T17:10:02.223Z,71.65
2022-09-28T17:12:29.651Z,71.82
2022-09-28T17:14:57.642Z,71.65
2022-09-28T17:17:29.741Z,72.07
2022-09-28T17:19:57.397Z,72.07
2022-09-28T17:22:24.753Z,72.26
2022-09-28T17:24:52.184Z,72.24
2022-09-28T17:27:21.623Z,72.17
2022-09-28T17:29:49.086Z,72.27
2022-09-28T17:32:18.840Z,72.52
2022-09-28T17:34:55.868Z,72.42
2022-09-28T17:37:28.545Z,72.66
2022-09-28T17:39:56.368Z,72.97
2022-09-28T17:42:23.688Z,72.94
2022-09-28T17:44:51.064Z,73.01
2022-09-28T17:47:18.745Z,73.56
2022-09-28T17:49:46.221Z,73.76
2022-09-28T17:52:14.080Z,73.75
2022-09-28T17:54:41.737Z,73.95
2022-09-28T17:57:10.115Z,73.96
2022-09-28T17:59:37.476Z,74.16
2022-09-28T18:02:05.216Z,74.44
2022-09-28T18:04:51.310Z,74.68
2022-09-28T18:07:19.296Z,74.88
2022-09-28T18:09:47.383Z,75.15
2022-09-28T18:12:14.744Z,75.59
2022-09-28T18:14:42.645Z,75.68
2022-09-28T18:17:10.403Z,75.50
2022-09-28T18:19:37.980Z,75.24
2022-09-28T18:22:05.341Z,75.55
2022-09-28T18:24:33.127Z,75.40
2022-09-28T18:27:00.739Z,75.72
2022-09-28T18:29:32.862Z,75.67
2022-09-28T18:32:02.138Z,75.71
2022-09-28T18:34:29.644Z,75.65
2022-09-28T18:36:57.106Z,75.72
2022-09-28T18:39:25.127Z,75.74
2022-09-28T18:41:52.460Z,76.08
2022-09-28T18:44:20.170Z,76.30
2022-09-28T18:46:48.015Z,76.27
2022-09-28T18:49:15.460Z,76.55
2022-09-28T18:51:42.897Z,76.84
2022-09-28T18:54:10.603Z,76.86
2022-09-28T18:56:38.089Z,77.46
2022-09-28T18:59:11.720Z,77.48
2022-09-28T19:01:41.512Z,77.92
2022-09-28T19:04:10.512Z,77.79
2022-09-28T19:06:44.422Z,78.20
2022-09-28T19:09:13.074Z,78.16
2022-09-28T19:11:40.708Z,78.29
2022-09-28T19:14:10.947Z,78.65
2022-09-28T19:16:38.729Z,78.71
2022-09-28T19:19:06.681Z,78.91
2022-09-28T19:21:34.105Z,79.16
2022-09-28T19:24:03.569Z,79.47
2022-09-28T19:26:32.815Z,79.67
2022-09-28T19:29:00.294Z,79.65
2022-09-28T19:31:28.848Z,79.68
2022-09-28T19:33:56.276Z,80.45
2022-09-28T19:36:25.969Z,80.58
2022-09-28T19:38:55.097Z,80.71
2022-09-28T19:41:43.766Z,81.13
2022-09-28T19:44:24.781Z,81.36
2022-09-28T19:47:06.920Z,82.32
2022-09-28T19:49:39.160Z,82.22
2022-09-28T19:52:16.625Z,84.09
2022-09-28T19:54:48.348Z,82.39
2022-09-28T19:57:16.037Z,82.14
2022-09-28T19:59:44.283Z,81.96
2022-09-28T20:02:13.278Z,81.76
2022-09-28T20:04:41.059Z,81.83
2022-09-28T20:07:08.544Z,82.14
2022-09-28T20:09:37.549Z,81.99
2022-09-28T20:12:05.300Z,81.96
2022-09-28T20:14:36.575Z,82.00
2022-09-28T20:17:05.801Z,82.11
2022-09-28T20:19:33.617Z,81.85
2022-09-28T20:22:02.563Z,81.79
2022-09-28T20:24:31.373Z,81.74
2022-09-28T20:26:59.091Z,81.61
2022-09-28T20:29:26.692Z,81.67
2022-09-28T20:31:54.418Z,81.57
2022-09-28T20:34:21.819Z,81.76
2022-09-28T20:36:49.184Z,81.87
2022-09-28T20:39:17.085Z,82.36
2022-09-28T20:41:46.062Z,82.58
2022-09-28T20:44:13.621Z,83.08
2022-09-28T20:46:43.684Z,83.45
2022-09-28T20:49:11.223Z,83.53
2022-09-28T20:51:38.631Z,83.82
2022-09-28T20:54:06.361Z,83.74
2022-09-28T20:56:38.716Z,84.13
2022-09-28T20:59:11.828Z,84.48
2022-09-28T21:01:39.957Z,84.66
2022-09-28T21:04:09.909Z,85.06
2022-09-28T21:06:39.659Z,84.91
2022-09-28T21:09:08.788Z,84.88
2022-09-28T21:11:36.997Z,85.04
2022-09-28T21:14:06.599Z,84.89
2022-09-28T21:16:34.909Z,85.09
2022-09-28T21:19:03.487Z,85.22
2022-09-28T21:21:31.037Z,85.52
2022-09-28T21:23:58.984Z,85.71
2022-09-28T21:26:29.137Z,85.97
2022-09-28T21:28:57.898Z,86.34
2022-09-28T21:31:29.421Z,86.19
2022-09-28T21:33:58.321Z,86.72
2022-09-28T21:36:25.898Z,86.74
2022-09-28T21:38:56.075Z,87.14
2022-09-28T21:41:24.821Z,87.72
2022-09-28T21:43:52.608Z,88.91
2022-09-28T21:46:20.243Z,89.95
2022-09-28T21:48:52.540Z,90.38
2022-09-28T21:51:19.976Z,90.60
2022-09-28T21:53:54.072Z,90.62
2022-09-28T21:56:23.040Z,91.25
2022-09-28T21:58:51.074Z,91.07
2022-09-28T22:01:21.437Z,91.83
2022-09-28T22:03:51.984Z,91.80
2022-09-28T22:06:21.727Z,91.59
2022-09-28T22:08:50.149Z,91.70
2022-09-28T22:11:23.630Z,92.27
2022-09-28T22:13:57.014Z,92.58
2022-09-28T22:16:30.333Z,92.68
2022-09-28T22:18:58.922Z,92.78
2022-09-28T22:21:34.978Z,92.92
2022-09-28T22:24:06.503Z,93.24
2022-09-28T22:26:36.525Z,93.12
2022-09-28T22:29:08.998Z,93.12
2022-09-28T22:31:39.776Z,93.19
2022-09-28T22:34:08.145Z,93.17
2022-09-28T22:36:35.848Z,93.09
2022-09-28T22:39:04.152Z,93.46
2022-09-28T22:41:32.175Z,93.87
2022-09-28T22:43:59.889Z,93.96
2022-09-28T22:46:29.321Z,94.33
2022-09-28T22:48:58.999Z,94.84
2022-09-28T22:51:28.720Z,95.38
2022-09-28T22:53:56.774Z,95.67
2022-09-28T22:56:24.576Z,95.70
2022-09-28T22:58:52.729Z,96.10
2022-09-28T23:01:23.225Z,96.64
2022-09-28T23:03:52.684Z,97.09
2022-09-28T23:06:23.294Z,98.01
2022-09-28T23:08:53.328Z,97.30
2022-09-28T23:11:21.277Z,97.58
2022-09-28T23:13:53.505Z,96.87
2022-09-28T23:16:23.387Z,96.76
2022-09-28T23:18:51.717Z,96.99
2022-09-28T23:21:22.752Z,96.85
2022-09-28T23:23:56.268Z,96.43
2022-09-28T23:26:26.728Z,96.33
2022-09-28T23:28:55.355Z,96.37
2022-09-28T23:31:28.457Z,96.44
2022-09-28T23:34:05.019Z,96.50
2022-09-28T23:36:33.124Z,96.56
2022-09-28T23:39:00.969Z,96.39
2022-09-28T23:41:28.524Z,96.67
2022-09-28T23:43:56.079Z,98.07
2022-09-28T23:46:24.335Z,97.68
2022-09-28T23:48:52.203Z,97.07
2022-09-28T23:51:19.595Z,96.54
2022-09-28T23:53:47.273Z,96.44
2022-09-28T23:56:14.957Z,96.38
2022-09-28T23:58:42.857Z,96.50
